METAR Data
IDs: Format: Raw Decoded Include TAF

Data at: 1004 UTC 18 Jan 2022

KD60 180955Z AUTO 28016KT 10SM OVC100 02/01 A2940 RMK AO2
KD60 180935Z AUTO 28016KT 10SM OVC100 01/01 A2939 RMK AO2
KD60 180915Z AUTO 28017KT 10SM OVC100 01/01 A2938 RMK AO2
KD60 180855Z AUTO 27015KT 10SM OVC100 01/00 A2938 RMK AO2
KD60 180835Z AUTO 27013KT 10SM OVC100 00/M00 A2937 RMK AO2
KD60 180815Z AUTO 26012KT 10SM BKN110 M00/M01 A2937 RMK AO2
KD60 180755Z AUTO 26010KT 10SM BKN110 M00/M01 A2937 RMK AO2
KD60 180735Z AUTO 25010KT 10SM BKN110 00/M01 A2938 RMK AO2
KD60 180715Z AUTO 27006G11KT 10SM OVC110 00/M01 A2939 RMK AO2
KD60 180655Z AUTO 00000KT 10SM BKN110 M02/M02 A2940 RMK AO2
KD60 180635Z AUTO 23009G15KT 10SM FEW110 M02/M01 A2940 RMK AO2
KD60 180615Z AUTO VRB05KT 10SM FEW100 FEW120 M05/M05 A2941 RMK AO2
KD60 180555Z AUTO 23006KT 10SM SCT100 M02/M02 A2941 RMK AO2
KD60 180535Z AUTO VRB03KT 10SM CLR M05/M05 A2942 RMK AO2
KD60 180515Z AUTO 00000KT 10SM CLR M04/M04 A2943 RMK AO2
KD60 180455Z AUTO 07005KT 10SM CLR M05/M05 A2944 RMK AO2
KD60 180435Z AUTO 14004KT 10SM CLR M06/M06 A2945 RMK AO2
KD60 180415Z AUTO 00000KT 8SM CLR M06/M06 A2946 RMK AO2
KD60 180355Z AUTO 00000KT 9SM CLR M05/M05 A2948 RMK AO2
KD60 180335Z AUTO 13004KT 10SM CLR M04/M04 A2948 RMK AO2
KD60 180315Z AUTO 13003KT 10SM CLR M04/M04 A2950 RMK AO2
KD60 180255Z AUTO 00000KT 10SM CLR M04/M04 A2952 RMK AO2
KD60 180235Z AUTO 19005KT 10SM CLR M04/M04 A2952 RMK AO2
KD60 180215Z AUTO 20007G12KT 10SM CLR M04/M04 A2953 RMK AO2
KD60 180155Z AUTO 18003KT 10SM CLR M04/M04 A2954 RMK AO2
KD60 180135Z AUTO 17005KT 10SM CLR M04/M04 A2955 RMK AO2
KD60 180115Z AUTO 00000KT 10SM CLR M04/M04 A2957 RMK AO2
KD60 180055Z AUTO 14004KT 10SM CLR M04/M04 A2957 RMK AO2
KD60 180035Z AUTO 18005KT 10SM CLR M04/M04 A2957 RMK AO2
KD60 180015Z AUTO 20005KT 10SM CLR M04/M04 A2958 RMK AO2
KD60 172355Z AUTO 00000KT 9SM FEW100 M04/M04 A2959 RMK AO2
KD60 172335Z AUTO 16003KT 9SM BKN110 M04/M04 A2960 RMK AO2
KD60 172315Z AUTO 12006KT 10SM OVC110 M03/M03 A2961 RMK AO2
KD60 172255Z AUTO 13005KT 10SM BKN110 M02/M02 A2962 RMK AO2
KD60 172235Z AUTO 18004KT 10SM FEW110 M01/M01 A2963 RMK AO2
KD60 172215Z AUTO 20007KT 10SM BKN110 M01/M01 A2964 RMK AO2
KD60 172155Z AUTO 18006KT 10SM OVC110 M00/M00 A2963 RMK AO2
KD60 172135Z AUTO 21006KT 9SM OVC110 M00/M00 A2964 RMK AO2
KD60 172115Z AUTO 18003KT 10SM OVC110 M00/M00 A2963 RMK AO2
KD60 172055Z AUTO 00000KT 10SM SCT100 OVC120 M01/M01 A2963 RMK AO2
KD60 172035Z AUTO 00000KT 10SM BKN100 BKN120 M01/M01 A2963 RMK AO2
KD60 172015Z AUTO 21005KT 10SM SCT110 M02/M02 A2965 RMK AO2
KD60 171955Z AUTO 21004KT 9SM FEW075 FEW100 M02/M02 A2966 RMK AO2
KD60 171935Z AUTO 22005KT 10SM SCT110 M02/M02 A2967 RMK AO2
KD60 171915Z AUTO 21003KT 9SM FEW065 SCT110 M03/M03 A2969 RMK AO2
KD60 171855Z AUTO 00000KT 9SM FEW065 BKN110 M03/M03 A2969 RMK AO2
KD60 171835Z AUTO 00000KT 9SM SCT100 SCT120 M04/M04 A2970 RMK AO2
KD60 171815Z AUTO 00000KT 9SM CLR M04/M04 A2970 RMK AO2
KD60 171755Z AUTO 08004KT 8SM CLR M05/M05 A2970 RMK AO2
KD60 171735Z AUTO 00000KT 7SM CLR M05/M05 A2971 RMK AO2
KD60 171715Z AUTO 10003KT 5SM BR CLR M06/M06 A2971 RMK AO2
KD60 171655Z AUTO 09003KT 5SM BR CLR M07/M07 A2971 RMK AO2
KD60 171635Z AUTO 07004KT 5SM BR CLR M07/M07 A2972 RMK AO2
KD60 171615Z AUTO 03005KT 4SM BR CLR M08/M08 A2971 RMK AO2
KD60 171555Z AUTO 00000KT 5SM BR CLR M08/M08 A2970 RMK AO2
KD60 171535Z AUTO 00000KT 4SM BR CLR M07/M07 A2970 RMK AO2
KD60 171515Z AUTO 00000KT 5SM BR FEW075 M06/M06 A2969 RMK AO2
KD60 171455Z AUTO 11004KT 6SM BR FEW075 M06/M06 A2969 RMK AO2
KD60 171435Z AUTO 00000KT 4SM BR FEW070 M06/M06 A2970 RMK AO2
KD60 171415Z AUTO 00000KT 9SM FEW075 M06/M06 A2970 RMK AO2
KD60 171355Z AUTO 00000KT 10SM BKN075 M04/M04 A2970 RMK AO2
KD60 171335Z AUTO 16003KT 9SM FEW080 M05/M05 A2972 RMK AO2
KD60 171315Z AUTO 00000KT 10SM CLR M04/M04 A2971 RMK AO2
KD60 171255Z AUTO 00000KT 10SM SCT085 M04/M04 A2971 RMK AO2
KD60 171235Z AUTO 00000KT 10SM OVC085 M04/M04 A2971 RMK AO2
KD60 171215Z AUTO 00000KT 10SM FEW070 OVC085 M04/M04 A2971 RMK AO2
KD60 171155Z AUTO 00000KT 10SM FEW044 SCT070 OVC085 M05/M05 A2971 RMK AO2
KD60 171135Z AUTO 11004KT 10SM SCT045 BKN070 OVC085 M05/M04 A2971 RMK AO2
KD60 171115Z AUTO 00000KT 10SM SCT047 SCT055 OVC065 M05/M05 A2972 RMK AO2
KD60 171055Z AUTO 09004KT 10SM SCT047 SCT055 OVC065 M05/M05 A2972 RMK AO2
KD60 171035Z AUTO 07005KT 10SM BKN046 BKN050 OVC060 M05/M05 A2973 RMK AO2
KD60 171015Z AUTO 06004KT 10SM SCT044 OVC060 M05/M05 A2973 RMK AO2
KD60 170955Z AUTO 09004KT 10SM OVC065 M05/M05 A2974 RMK AO2
KD60 170935Z AUTO 08004KT 10SM OVC065 M05/M05 A2975 RMK AO2
KD60 170915Z AUTO 00000KT 10SM OVC075 M06/M06 A2975 RMK AO2
KD60 170855Z AUTO 00000KT 10SM OVC080 M06/M06 A2976 RMK AO2
KD60 170835Z AUTO 07004KT 10SM FEW065 OVC090 M06/M06 A2976 RMK AO2
KD60 170815Z AUTO 08004KT 10SM SCT065 OVC100 M06/M06 A2977 RMK AO2
KD60 170755Z AUTO 00000KT 10SM BKN070 OVC080 M06/M06 A2978 RMK AO2
KD60 170735Z AUTO 00000KT 10SM SCT070 BKN090 M05/M05 A2979 RMK AO2
KD60 170715Z AUTO 00000KT 10SM BKN095 BKN120 M05/M05 A2980 RMK AO2
KD60 170655Z AUTO 21005KT 10SM SCT110 M05/M05 A2982 RMK AO2
KD60 170635Z AUTO 23006KT 10SM BKN110 M05/M05 A2982 RMK AO2
KD60 170615Z AUTO 00000KT 10SM SCT095 SCT110 M05/M05 A2983 RMK AO2
KD60 170555Z AUTO 23005KT 10SM BKN095 M05/M05 A2984 RMK AO2
KD60 170535Z AUTO 23004KT 10SM FEW100 FEW120 M05/M05 A2985 RMK AO2
KD60 170515Z AUTO 26005KT 10SM CLR M06/M06 A2985 RMK AO2
KD60 170455Z AUTO 26006KT 10SM CLR M07/M07 A2986 RMK AO2
KD60 170435Z AUTO 27006KT 10SM CLR M06/M06 A2986 RMK AO2
KD60 170415Z AUTO 26005KT 10SM CLR M05/M05 A2986 RMK AO2
KD60 170355Z AUTO 26006KT 10SM CLR M05/M05 A2987 RMK AO2
KD60 170335Z AUTO 25010KT 10SM CLR M04/M04 A2988 RMK AO2
KD60 170315Z AUTO 25008KT 10SM CLR M05/M05 A2988 RMK AO2
KD60 170255Z AUTO 26008KT 10SM CLR M06/M06 A2990 RMK AO2
KD60 170235Z AUTO 26008KT 10SM CLR M06/M06 A2991 RMK AO2
KD60 170215Z AUTO 25010KT 10SM CLR M05/M05 A2992 RMK AO2
KD60 170155Z AUTO 25011KT 10SM CLR M04/M04 A2991 RMK AO2
KD60 170135Z AUTO 26012KT 10SM CLR M04/M04 A2991 RMK AO2
KD60 170115Z AUTO 25011KT 10SM CLR M04/M04 A2991 RMK AO2
KD60 170055Z AUTO 25011KT 10SM CLR M04/M04 A2991 RMK AO2
KD60 170035Z AUTO 25011KT 10SM CLR M04/M04 A2991 RMK AO2
KD60 170015Z AUTO 25011KT 10SM CLR M04/M04 A2992 RMK AO2
KD60 162355Z AUTO 25012KT 10SM CLR M03/M03 A2993 RMK AO2
KD60 162335Z AUTO 26010KT 10SM CLR M03/M03 A2994 RMK AO2
KD60 162315Z AUTO 26011KT 10SM CLR M03/M03 A2994 RMK AO2
KD60 162255Z AUTO 27011KT 10SM CLR M02/M03 A2994 RMK AO2
KD60 162235Z AUTO 28012KT 10SM CLR M01/M03 A2994 RMK AO2
KD60 162215Z AUTO 28010KT 10SM CLR M01/M02 A2994 RMK AO2